Time;durP1;ratioP1;P1;durP2;ratioP2;P2;SDS_P1;SDS_P2;PMS_P1;PMS_P2;Temp;Humidity;BMP_temperature;BMP_pressure;BME280_temperature;BME280_humidity;BME280_pressure;Samples;Min_cycle;Max_cycle;Signal;HPM_P1;HPM_P2
2022/03/08 00:01:38;;;;;;;12.88;8.35;;;4.00;83.10;;;;;;5072415;28;20029;-71
2022/03/08 00:04:04;;;;;;;14.30;8.73;;;3.90;83.70;;;;;;5072410;28;20032;-71
2022/03/08 00:06:30;;;;;;;14.73;8.93;;;3.80;84.00;;;;;;5072521;28;20033;-71
2022/03/08 00:08:56;;;;;;;14.25;8.38;;;4.00;83.70;;;;;;5072431;28;20063;-71
2022/03/08 00:11:22;;;;;;;15.63;8.60;;;3.90;83.50;;;;;;5072403;28;20082;-71
2022/03/08 00:13:50;;;;;;;12.98;9.25;;;3.60;84.20;;;;;;5054397;28;20032;-71
2022/03/08 00:16:17;;;;;;;13.40;9.50;;;3.60;84.70;;;;;;5072578;28;20044;-71
2022/03/08 00:18:44;;;;;;;13.38;8.73;;;3.60;84.30;;;;;;5072134;28;20024;-71
2022/03/08 00:21:11;;;;;;;21.30;9.80;;;3.60;85.00;;;;;;5054334;28;20044;-70
2022/03/08 00:23:37;;;;;;;15.90;10.13;;;3.70;84.40;;;;;;5072221;28;20021;-70
2022/03/08 00:26:03;;;;;;;18.75;8.93;;;3.70;84.50;;;;;;5072266;28;20047;-71
2022/03/08 00:28:29;;;;;;;19.42;10.25;;;3.80;84.00;;;;;;5072162;28;20021;-71
2022/03/08 00:30:56;;;;;;;22.70;10.95;;;3.70;84.50;;;;;;5072341;28;20029;-71
2022/03/08 00:33:22;;;;;;;15.88;9.57;;;3.60;83.90;;;;;;5071747;28;20166;-71
2022/03/08 00:35:48;;;;;;;13.05;9.55;;;3.60;83.90;;;;;;5054223;28;20395;-70
2022/03/08 00:38:15;;;;;;;20.52;10.70;;;3.70;83.90;;;;;;5054202;28;20411;-70
2022/03/08 00:40:41;;;;;;;39.40;15.73;;;3.40;84.30;;;;;;5054518;28;20033;-70
2022/03/08 00:43:08;;;;;;;18.38;9.90;;;3.40;84.20;;;;;;5072135;28;20020;-71
2022/03/08 00:45:34;;;;;;;15.80;9.50;;;3.40;85.20;;;;;;5054206;28;20433;-71
2022/03/08 00:48:00;;;;;;;17.67;8.98;;;3.40;85.30;;;;;;5071839;28;20469;-70
2022/03/08 00:50:28;;;;;;;16.58;9.32;;;3.50;85.00;;;;;;5072185;28;20075;-70
2022/03/08 00:52:55;;;;;;;14.48;9.05;;;3.80;84.90;;;;;;5054569;28;20060;-71
2022/03/08 00:55:23;;;;;;;12.95;8.57;;;3.90;84.10;;;;;;5074853;28;20075;-71
2022/03/08 00:57:50;;;;;;;16.95;8.45;;;3.80;83.80;;;;;;5075644;28;20042;-70
2022/03/08 01:00:19;;;;;;;16.33;9.38;;;3.30;85.30;;;;;;5075709;28;20033;-70
2022/03/08 01:02:45;;;;;;;19.88;9.23;;;3.10;86.40;;;;;;5075181;28;20036;-71
2022/03/08 01:05:11;;;;;;;15.02;8.30;;;3.30;86.30;;;;;;5075648;28;20056;-70
2022/03/08 01:07:38;;;;;;;14.02;9.30;;;3.20;85.80;;;;;;5041056;28;20059;-70
2022/03/08 01:10:05;;;;;;;15.40;9.30;;;3.20;86.20;;;;;;5075374;28;20038;-70
2022/03/08 01:12:31;;;;;;;13.80;8.48;;;3.30;86.30;;;;;;5057336;28;20746;-70
2022/03/08 01:14:57;;;;;;;20.80;9.20;;;3.40;86.50;;;;;;5056992;28;20063;-70
2022/03/08 01:17:23;;;;;;;15.40;8.85;;;3.40;86.10;;;;;;5055249;28;20029;-70
2022/03/08 01:19:49;;;;;;;14.65;9.48;;;3.30;86.40;;;;;;5055313;28;20048;-70
2022/03/08 01:22:15;;;;;;;17.65;9.70;;;3.30;86.00;;;;;;5055010;28;20037;-70
2022/03/08 01:24:41;;;;;;;16.15;9.35;;;3.30;86.60;;;;;;5037089;28;20457;-70
2022/03/08 01:27:07;;;;;;;13.88;8.48;;;3.40;86.40;;;;;;5043181;28;20021;-70
2022/03/08 01:29:33;;;;;;;12.20;8.93;;;3.30;85.70;;;;;;5057159;28;20380;-70
2022/03/08 01:31:59;;;;;;;19.50;8.75;;;3.10;85.90;;;;;;5074916;28;20028;-70
2022/03/08 01:34:24;;;;;;;17.05;9.77;;;3.10;87.30;;;;;;5056767;28;20025;-70
2022/03/08 01:36:50;;;;;;;14.27;8.70;;;3.00;87.20;;;;;;5074999;28;20032;-70
2022/03/08 01:39:16;;;;;;;14.15;8.55;;;3.00;86.80;;;;;;5074831;28;20021;-70
2022/03/08 01:41:42;;;;;;;16.02;8.98;;;2.90;87.20;;;;;;5074982;28;20374;-70
2022/03/08 01:44:09;;;;;;;18.35;9.05;;;3.10;87.50;;;;;;5056873;28;20036;-70
2022/03/08 01:46:36;;;;;;;17.27;9.88;;;3.00;86.90;;;;;;5056627;28;20405;-70
2022/03/08 01:49:04;;;;;;;14.68;8.70;;;3.00;88.20;;;;;;5056689;28;20419;-70
2022/03/08 01:51:30;;;;;;;14.52;8.60;;;3.10;87.90;;;;;;5074635;28;20117;-71
2022/03/08 01:53:55;;;;;;;16.80;9.00;;;3.10;87.90;;;;;;5056730;28;20095;-70
2022/03/08 01:56:22;;;;;;;13.38;9.07;;;3.10;87.90;;;;;;5074768;28;20028;-75
2022/03/08 01:58:47;;;;;;;14.80;9.13;;;2.90;89.00;;;;;;5074462;28;20024;-70
2022/03/08 02:01:15;;;;;;;15.05;9.07;;;3.20;87.80;;;;;;5074401;28;20415;-70
2022/03/08 02:03:40;;;;;;;16.48;8.52;;;3.00;88.00;;;;;;5074539;28;20485;-70
2022/03/08 02:06:06;;;;;;;14.57;9.02;;;3.00;87.60;;;;;;5073743;28;20029;-70
2022/03/08 02:08:32;;;;;;;15.20;8.57;;;2.90;88.40;;;;;;5074481;28;20464;-70
2022/03/08 02:10:59;;;;;;;17.30;8.93;;;2.90;87.70;;;;;;5056075;28;20024;-70
2022/03/08 02:13:25;;;;;;;20.40;8.32;;;2.90;88.40;;;;;;5056336;28;20032;-71
2022/03/08 02:15:52;;;;;;;12.52;8.43;;;2.70;89.00;;;;;;5073867;28;20041;-70
2022/03/08 02:18:18;;;;;;;12.82;9.07;;;2.70;88.60;;;;;;5074314;28;20028;-71
2022/03/08 02:20:44;;;;;;;14.18;9.13;;;2.80;88.60;;;;;;5073819;28;20104;-70
2022/03/08 02:23:10;;;;;;;11.50;7.85;;;2.60;88.20;;;;;;5074003;28;20033;-70
2022/03/08 02:25:36;;;;;;;11.45;8.00;;;2.60;89.10;;;;;;5073898;28;20048;-70
2022/03/08 02:28:02;;;;;;;13.27;8.38;;;2.70;89.80;;;;;;5073622;28;20366;-70
2022/03/08 02:30:28;;;;;;;21.38;10.30;;;2.70;89.60;;;;;;5073847;28;20013;-70
2022/03/08 02:32:55;;;;;;;17.83;9.60;;;2.80;89.60;;;;;;5056017;28;20036;-70
2022/03/08 02:35:31;;;;;;;16.35;10.27;;;2.90;89.60;;;;;;5073668;28;20032;-70
2022/03/08 02:38:02;;;;;;;15.82;9.15;;;2.90;89.20;;;;;;5073680;28;20036;-70
2022/03/08 02:40:32;;;;;;;21.77;9.13;;;3.00;90.00;;;;;;5073827;28;20049;-70
2022/03/08 02:42:58;;;;;;;14.90;9.13;;;2.80;89.40;;;;;;5073418;28;20447;-70
2022/03/08 02:45:24;;;;;;;17.98;9.60;;;2.80;90.00;;;;;;5073537;28;20024;-70
2022/03/08 02:47:50;;;;;;;22.58;11.10;;;3.00;89.00;;;;;;5073667;28;20491;-70
2022/03/08 02:50:17;;;;;;;23.40;9.88;;;2.80;88.50;;;;;;5073484;28;20025;-70
2022/03/08 02:52:44;;;;;;;19.80;9.55;;;2.60;89.70;;;;;;5055857;28;20041;-70
2022/03/08 02:55:12;;;;;;;35.92;13.77;;;2.40;90.30;;;;;;5073165;28;20484;-70
2022/03/08 02:57:39;;;;;;;26.60;10.90;;;2.50;90.30;;;;;;5073208;28;20026;-70
2022/03/08 03:00:08;;;;;;;28.00;12.65;;;2.50;90.60;;;;;;5055442;28;20380;-70
2022/03/08 03:02:33;;;;;;;16.38;9.65;;;2.50;90.60;;;;;;5073425;28;20078;-70
2022/03/08 03:04:59;;;;;;;20.13;10.68;;;2.50;90.90;;;;;;5073383;28;20054;-70
2022/03/08 03:07:25;;;;;;;16.90;9.20;;;2.40;91.00;;;;;;5073146;28;20358;-70
2022/03/08 03:09:51;;;;;;;17.33;9.27;;;2.50;91.10;;;;;;5073143;28;20033;-70
2022/03/08 03:12:17;;;;;;;14.80;8.60;;;2.60;91.30;;;;;;5072831;28;20031;-70
2022/03/08 03:14:43;;;;;;;28.38;12.30;;;2.70;91.20;;;;;;5073219;28;20075;-70
2022/03/08 03:17:09;;;;;;;24.88;11.07;;;2.60;91.40;;;;;;5072613;28;20109;-70
2022/03/08 03:19:36;;;;;;;19.90;11.07;;;2.60;91.40;;;;;;5054780;28;20039;-70
2022/03/08 03:22:03;;;;;;;17.60;10.13;;;2.60;91.60;;;;;;5072797;28;20166;-70
2022/03/08 03:24:29;;;;;;;17.55;10.15;;;2.70;91.20;;;;;;5065491;28;20448;-70
2022/03/08 03:26:54;;;;;;;16.52;8.73;;;2.40;91.20;;;;;;5056729;28;20124;-70
2022/03/08 03:29:20;;;;;;;13.57;9.30;;;2.40;91.90;;;;;;5072887;28;20029;-70
2022/03/08 03:31:46;;;;;;;21.52;10.13;;;2.30;92.00;;;;;;5072821;28;20366;-70
2022/03/08 03:34:12;;;;;;;15.27;9.88;;;2.40;92.00;;;;;;5072962;28;20473;-70
2022/03/08 03:36:38;;;;;;;15.88;9.43;;;2.40;92.20;;;;;;5054884;28;20044;-70
2022/03/08 03:39:05;;;;;;;17.13;9.82;;;2.20;92.20;;;;;;5072967;28;20020;-70
2022/03/08 03:41:30;;;;;;;13.95;8.52;;;2.20;92.30;;;;;;5072618;28;20078;-70
2022/03/08 03:43:56;;;;;;;17.25;9.38;;;2.20;92.60;;;;;;5072600;28;20021;-70
2022/03/08 03:46:22;;;;;;;16.92;9.95;;;2.30;92.60;;;;;;5072617;28;20444;-70
2022/03/08 03:48:48;;;;;;;19.40;10.25;;;2.30;92.70;;;;;;5054872;28;20028;-71
2022/03/08 03:51:16;;;;;;;18.65;10.90;;;2.30;92.30;;;;;;5072553;28;20058;-70
2022/03/08 03:53:43;;;;;;;16.20;10.00;;;2.20;92.50;;;;;;5072472;28;20420;-70
2022/03/08 03:56:09;;;;;;;15.85;10.70;;;2.10;92.80;;;;;;5072457;28;20654;-70
2022/03/08 03:58:34;;;;;;;16.02;9.70;;;2.20;93.00;;;;;;5072537;28;20016;-71
2022/03/08 04:01:00;;;;;;;17.27;9.48;;;2.10;92.90;;;;;;5072703;28;20430;-70
2022/03/08 04:03:26;;;;;;;15.50;10.30;;;2.10;93.10;;;;;;5072357;28;20024;-70
2022/03/08 04:05:52;;;;;;;14.60;9.77;;;2.10;92.70;;;;;;5072704;28;20032;-71
2022/03/08 04:08:20;;;;;;;15.13;9.10;;;2.20;93.30;;;;;;5072355;28;20020;-70
2022/03/08 04:10:50;;;;;;;13.15;9.57;;;2.50;92.40;;;;;;5054220;28;20366;-71
2022/03/08 04:13:17;;;;;;;15.52;10.60;;;2.30;92.90;;;;;;5072316;28;20473;-70
2022/03/08 04:15:46;;;;;;;15.40;9.82;;;2.10;93.10;;;;;;5054533;28;20044;-70
2022/03/08 04:18:14;;;;;;;15.60;10.63;;;2.20;93.60;;;;;;5072261;28;20044;-71
2022/03/08 04:20:40;;;;;;;19.33;10.52;;;2.20;93.50;;;;;;5072250;28;20028;-70
2022/03/08 04:23:06;;;;;;;17.58;9.85;;;2.30;93.30;;;;;;5072289;28;20032;-70
2022/03/08 04:25:31;;;;;;;20.33;9.40;;;1.90;94.20;;;;;;5072129;28;20468;-70
2022/03/08 04:27:57;;;;;;;16.58;10.32;;;1.60;95.40;;;;;;5072188;28;20016;-70
2022/03/08 04:30:24;;;;;;;21.60;9.70;;;1.30;96.70;;;;;;5075189;28;20392;-70
2022/03/08 04:32:52;;;;;;;19.13;10.07;;;1.40;97.90;;;;;;5076077;28;20013;-70
2022/03/08 04:35:19;;;;;;;20.17;10.35;;;1.70;96.80;;;;;;5076249;28;20044;-70
2022/03/08 04:37:45;;;;;;;16.95;10.45;;;1.60;97.20;;;;;;5076019;28;20384;-70
2022/03/08 04:40:12;;;;;;;18.95;10.70;;;1.60;96.80;;;;;;5057904;28;20504;-70
2022/03/08 04:42:39;;;;;;;16.85;10.63;;;1.60;97.50;;;;;;5041452;28;20115;-70
2022/03/08 04:45:07;;;;;;;18.67;9.90;;;1.70;97.10;;;;;;5075978;28;20053;-70
2022/03/08 04:47:35;;;;;;;14.32;9.77;;;1.80;96.50;;;;;;5075764;28;20033;-70
2022/03/08 04:50:03;;;;;;;18.50;10.98;;;1.80;96.50;;;;;;5075871;28;20473;-70
2022/03/08 04:52:29;;;;;;;15.40;10.05;;;2.00;95.80;;;;;;5076048;28;20036;-70
2022/03/08 04:54:55;;;;;;;16.05;10.65;;;1.80;96.80;;;;;;5057666;28;20460;-70
2022/03/08 04:57:21;;;;;;;20.77;10.65;;;1.80;96.70;;;;;;5075668;28;20099;-70
2022/03/08 04:59:46;;;;;;;20.85;10.48;;;1.80;96.70;;;;;;5075570;28;20025;-70
2022/03/08 05:02:12;;;;;;;19.83;11.07;;;1.70;96.80;;;;;;5075284;28;20021;-70
2022/03/08 05:04:38;;;;;;;14.40;9.15;;;1.70;97.10;;;;;;5075493;28;20028;-70
2022/03/08 05:07:04;;;;;;;19.70;10.25;;;1.50;97.40;;;;;;5075528;28;20029;-70
2022/03/08 05:09:29;;;;;;;18.27;10.23;;;1.40;97.60;;;;;;5075131;28;20017;-71
2022/03/08 05:11:55;;;;;;;16.38;9.63;;;1.40;98.20;;;;;;5075236;28;20071;-70
2022/03/08 05:14:21;;;;;;;20.35;11.13;;;1.30;98.20;;;;;;5075251;28;20100;-70
2022/03/08 05:16:47;;;;;;;20.17;11.40;;;1.20;99.00;;;;;;5075539;28;20534;-71
2022/03/08 05:19:12;;;;;;;17.83;10.77;;;1.10;99.20;;;;;;5075449;28;20067;-70
2022/03/08 05:21:38;;;;;;;20.02;10.20;;;1.20;99.40;;;;;;5057258;28;20043;-71
2022/03/08 05:24:04;;;;;;;21.73;10.90;;;1.50;98.60;;;;;;5074515;28;20043;-71
2022/03/08 05:26:30;;;;;;;19.83;10.38;;;1.60;98.00;;;;;;5057033;28;20021;-71
2022/03/08 05:28:55;;;;;;;19.60;10.63;;;1.60;97.80;;;;;;5074989;28;20434;-71
2022/03/08 05:31:21;;;;;;;15.05;10.23;;;1.70;97.90;;;;;;5075121;28;20036;-71
2022/03/08 05:33:47;;;;;;;25.02;10.75;;;1.70;97.80;;;;;;5075024;28;20029;-70
2022/03/08 05:36:13;;;;;;;25.27;11.27;;;1.70;97.70;;;;;;5057055;28;20097;-71
2022/03/08 05:38:38;;;;;;;16.50;10.05;;;1.60;98.20;;;;;;5074888;28;20026;-71
2022/03/08 05:41:04;;;;;;;17.20;9.98;;;1.60;98.00;;;;;;5073972;28;20028;-70
2022/03/08 05:43:30;;;;;;;26.67;11.77;;;1.60;98.10;;;;;;5074686;28;20035;-71
2022/03/08 05:45:56;;;;;;;23.70;10.98;;;1.60;98.70;;;;;;5074739;28;20032;-70
2022/03/08 05:48:21;;;;;;;15.15;10.20;;;1.50;98.70;;;;;;5074816;28;20036;-71
2022/03/08 05:50:47;;;;;;;22.92;11.55;;;1.40;99.20;;;;;;5074607;28;20029;-71
2022/03/08 05:53:13;;;;;;;18.42;10.63;;;1.40;99.00;;;;;;5056605;28;20039;-70
2022/03/08 05:55:39;;;;;;;28.05;13.65;;;1.40;99.20;;;;;;5074388;28;20044;-70
2022/03/08 05:58:04;;;;;;;19.50;10.60;;;1.30;99.20;;;;;;5074531;28;20066;-70
2022/03/08 06:00:30;;;;;;;28.55;10.85;;;1.30;99.40;;;;;;5056331;28;20412;-70
2022/03/08 06:02:56;;;;;;;18.98;10.43;;;1.50;99.10;;;;;;5074676;28;20028;-71
2022/03/08 06:05:22;;;;;;;15.48;9.88;;;1.40;99.20;;;;;;5074384;28;20028;-70
2022/03/08 06:07:48;;;;;;;18.95;9.65;;;1.30;99.90;;;;;;5074209;28;20036;-70
2022/03/08 06:10:14;;;;;;;21.45;10.80;;;1.50;99.90;;;;;;5056395;28;20025;-70
2022/03/08 06:12:41;;;;;;;19.48;10.35;;;1.40;99.80;;;;;;5074221;28;20028;-70
2022/03/08 06:15:08;;;;;;;20.17;10.55;;;1.40;99.80;;;;;;5074597;28;20487;-71
2022/03/08 06:17:34;;;;;;;20.48;10.73;;;1.50;99.50;;;;;;5074271;28;20077;-71
2022/03/08 06:20:00;;;;;;;17.75;10.60;;;1.60;99.30;;;;;;5074024;28;20032;-71
2022/03/08 06:22:25;;;;;;;20.75;10.65;;;1.40;99.90;;;;;;5073600;28;20443;-71
2022/03/08 06:24:51;;;;;;;15.82;9.90;;;1.50;99.90;;;;;;5073750;28;20105;-71
2022/03/08 06:27:17;;;;;;;26.27;11.13;;;1.50;99.70;;;;;;5055749;28;20020;-70
2022/03/08 06:29:43;;;;;;;15.45;10.45;;;1.40;99.60;;;;;;5073719;28;20070;-70
2022/03/08 06:32:09;;;;;;;18.42;11.02;;;1.30;99.90;;;;;;5074035;28;20433;-70
2022/03/08 06:34:35;;;;;;;22.13;9.93;;;1.40;99.90;;;;;;5073495;28;20131;-70
2022/03/08 06:37:00;;;;;;;27.52;11.20;;;1.40;99.90;;;;;;5055867;28;20032;-70
2022/03/08 06:39:26;;;;;;;26.30;11.63;;;1.60;99.90;;;;;;5074404;28;20074;-70
2022/03/08 06:41:52;;;;;;;19.23;10.80;;;1.50;99.60;;;;;;5073507;28;20036;-70
2022/03/08 06:44:18;;;;;;;27.33;11.13;;;1.50;99.40;;;;;;5073693;28;20016;-70
2022/03/08 06:46:46;;;;;;;20.83;10.60;;;1.60;99.70;;;;;;5073486;28;20384;-70
2022/03/08 06:49:12;;;;;;;18.75;10.50;;;1.60;99.90;;;;;;5073508;28;20444;-70
2022/03/08 06:51:38;;;;;;;19.98;10.82;;;1.60;99.90;;;;;;5072909;28;20489;-70
2022/03/08 06:54:08;;;;;;;23.05;10.73;;;1.50;99.90;;;;;;5073449;28;20032;-70
2022/03/08 06:56:35;;;;;;;17.23;10.57;;;1.70;99.90;;;;;;5073415;28;20107;-70
2022/03/08 06:59:02;;;;;;;18.23;10.30;;;1.70;99.70;;;;;;5073361;28;20047;-70
2022/03/08 07:01:28;;;;;;;18.98;10.55;;;1.80;99.50;;;;;;5039199;28;20119;-70
2022/03/08 07:03:54;;;;;;;20.67;10.30;;;1.70;99.20;;;;;;5073011;28;20568;-70
2022/03/08 07:06:20;;;;;;;19.83;9.98;;;1.80;99.40;;;;;;5073343;28;20420;-72
2022/03/08 07:08:45;;;;;;;16.52;9.77;;;1.90;99.00;;;;;;5073177;28;20024;-70
2022/03/08 07:11:11;;;;;;;24.73;10.00;;;2.00;99.10;;;;;;5072620;28;20025;-70
2022/03/08 07:13:37;;;;;;;15.43;9.70;;;2.00;98.90;;;;;;5073106;28;20433;-72
2022/03/08 07:16:03;;;;;;;16.00;10.90;;;2.00;99.00;;;;;;5072996;28;20480;-70
2022/03/08 07:18:29;;;;;;;20.13;10.07;;;2.10;99.10;;;;;;5072850;28;20036;-70
2022/03/08 07:20:55;;;;;;;19.35;10.30;;;2.20;99.20;;;;;;5072625;28;20033;-70
2022/03/08 07:23:21;;;;;;;31.67;9.82;;;2.20;98.80;;;;;;5072704;28;20027;-70
2022/03/08 07:25:47;;;;;;;16.88;9.75;;;2.30;98.60;;;;;;5069479;28;20017;-70
2022/03/08 07:28:12;;;;;;;25.33;9.38;;;2.30;98.50;;;;;;5033654;28;20510;-70
2022/03/08 07:30:38;;;;;;;21.23;9.63;;;2.50;97.80;;;;;;5051207;28;20083;-70
2022/03/08 07:33:04;;;;;;;17.27;9.60;;;2.40;97.40;;;;;;5051468;28;20279;-70
2022/03/08 07:35:30;;;;;;;15.15;9.15;;;2.50;97.60;;;;;;5052481;28;20485;-69
2022/03/08 07:37:56;;;;;;;29.77;10.65;;;2.60;96.90;;;;;;5052212;28;20083;-70
2022/03/08 07:40:22;;;;;;;23.73;10.45;;;2.80;96.70;;;;;;5051387;28;20033;-70
2022/03/08 07:42:48;;;;;;;16.75;9.85;;;2.80;96.80;;;;;;5052558;28;20024;-70
2022/03/08 07:45:14;;;;;;;19.48;9.20;;;2.90;96.50;;;;;;5034760;28;20025;-70
2022/03/08 07:47:43;;;;;;;30.52;10.82;;;2.90;96.30;;;;;;5051919;28;20070;-70
2022/03/08 07:50:10;;;;;;;25.83;11.43;;;3.00;96.00;;;;;;5034461;28;20029;-70
2022/03/08 07:52:36;;;;;;;27.55;10.60;;;3.10;96.20;;;;;;5052726;28;20028;-70
2022/03/08 07:55:03;;;;;;;23.52;10.48;;;3.00;95.40;;;;;;5054756;28;20136;-70
2022/03/08 07:57:29;;;;;;;17.83;9.90;;;3.00;94.90;;;;;;5072101;28;20020;-70
2022/03/08 07:59:55;;;;;;;19.42;9.85;;;3.10;94.20;;;;;;5072487;28;20082;-70
2022/03/08 08:02:21;;;;;;;26.73;13.15;;;3.20;94.10;;;;;;5071594;28;20123;-70
2022/03/08 08:04:46;;;;;;;26.23;11.63;;;3.10;93.70;;;;;;5074305;28;20021;-71
2022/03/08 08:07:12;;;;;;;40.03;16.13;;;3.10;94.00;;;;;;5076427;28;20044;-70
2022/03/08 08:09:38;;;;;;;16.27;10.10;;;3.20;93.80;;;;;;5076398;28;20111;-70
2022/03/08 08:12:06;;;;;;;14.30;9.98;;;3.30;93.10;;;;;;5076014;28;20032;-70
2022/03/08 08:14:32;;;;;;;14.25;9.07;;;3.40;93.20;;;;;;5076052;28;20043;-70
2022/03/08 08:16:58;;;;;;;17.02;8.70;;;3.60;93.00;;;;;;5075446;28;20119;-71
2022/03/08 08:19:23;;;;;;;18.63;9.48;;;3.70;92.00;;;;;;5058658;28;20036;-70
2022/03/08 08:21:49;;;;;;;14.07;9.70;;;3.70;92.40;;;;;;5037788;28;20037;-69
2022/03/08 08:24:15;;;;;;;16.08;9.05;;;3.70;92.70;;;;;;5055735;28;20127;-70
2022/03/08 08:26:41;;;;;;;14.88;8.15;;;3.80;92.80;;;;;;5071571;28;20392;-71
2022/03/08 08:29:06;;;;;;;17.15;8.35;;;4.00;92.50;;;;;;5076168;28;20021;-73
2022/03/08 08:31:33;;;;;;;13.82;8.80;;;4.20;92.00;;;;;;5059890;28;20597;-70
2022/03/08 08:33:58;;;;;;;12.48;8.30;;;4.30;91.40;;;;;;5055665;28;20025;-70
2022/03/08 08:36:24;;;;;;;15.50;8.65;;;4.40;91.40;;;;;;5054303;28;20473;-70
2022/03/08 08:38:50;;;;;;;14.48;8.60;;;4.50;90.70;;;;;;5056015;28;20055;-69
2022/03/08 08:41:16;;;;;;;17.50;8.90;;;4.60;90.90;;;;;;5056257;28;20029;-70
2022/03/08 08:43:42;;;;;;;16.27;9.52;;;4.70;91.10;;;;;;5056068;28;20104;-69
2022/03/08 08:46:07;;;;;;;14.30;7.90;;;4.70;91.20;;;;;;5037954;28;20043;-70
2022/03/08 08:48:35;;;;;;;14.65;8.50;;;4.90;90.40;;;;;;5055957;28;20125;-70
2022/03/08 08:51:00;;;;;;;15.30;8.13;;;5.00;90.70;;;;;;5055743;28;20028;-71
2022/03/08 08:53:26;;;;;;;18.08;8.90;;;5.30;90.60;;;;;;5055755;28;20377;-70
2022/03/08 08:55:52;;;;;;;11.80;8.38;;;5.20;90.30;;;;;;5055786;28;20110;-70
2022/03/08 08:58:18;;;;;;;15.18;8.20;;;5.40;90.10;;;;;;5055660;28;20021;-72
2022/03/08 09:00:44;;;;;;;13.95;8.50;;;5.40;88.80;;;;;;5055676;28;20025;-71
2022/03/08 09:03:14;;;;;;;17.80;8.75;;;5.10;89.50;;;;;;5055444;28;20032;-72
2022/03/08 09:05:44;;;;;;;14.02;8.85;;;5.40;89.90;;;;;;5037908;28;20104;-73
2022/03/08 09:08:11;;;;;;;14.77;7.72;;;5.80;89.60;;;;;;5037821;28;20048;-73
2022/03/08 09:10:37;;;;;;;16.60;7.82;;;6.00;87.20;;;;;;5063497;28;20163;-72
2022/03/08 09:13:03;;;;;;;13.27;7.22;;;6.00;86.60;;;;;;5075413;28;20029;-72
2022/03/08 09:15:29;;;;;;;15.02;7.55;;;6.00;86.80;;;;;;5075251;28;20052;-72
2022/03/08 09:17:55;;;;;;;15.38;6.40;;;6.10;86.80;;;;;;5057565;28;20032;-72
2022/03/08 09:20:22;;;;;;;13.93;6.95;;;6.10;84.10;;;;;;5057433;28;20078;-70
2022/03/08 09:22:49;;;;;;;10.07;6.75;;;6.30;84.90;;;;;;5075205;28;20028;-71
2022/03/08 09:25:15;;;;;;;15.77;6.40;;;6.20;82.40;;;;;;5075065;28;20082;-71
2022/03/08 09:27:41;;;;;;;20.13;7.10;;;6.30;80.90;;;;;;5075225;28;20020;-71
2022/03/08 09:30:07;;;;;;;9.50;6.00;;;6.40;81.20;;;;;;5056663;28;20037;-71
2022/03/08 09:32:33;;;;;;;13.02;6.65;;;6.80;81.40;;;;;;5057296;28;20016;-71
2022/03/08 09:34:59;;;;;;;17.27;7.25;;;6.90;80.70;;;;;;5075043;28;20029;-71
2022/03/08 09:37:25;;;;;;;8.55;6.00;;;7.20;78.50;;;;;;5074901;28;20032;-71
2022/03/08 09:39:51;;;;;;;14.02;5.68;;;7.40;79.50;;;;;;5075052;28;20052;-71
2022/03/08 09:42:17;;;;;;;10.93;6.03;;;7.40;78.60;;;;;;5074834;28;20063;-71
2022/03/08 09:44:43;;;;;;;8.40;5.80;;;7.30;78.40;;;;;;5074657;28;20109;-71
2022/03/08 09:47:09;;;;;;;16.52;6.82;;;7.50;77.10;;;;;;5074796;28;20047;-71
2022/03/08 09:49:35;;;;;;;12.27;6.53;;;7.50;77.60;;;;;;5056747;28;20389;-71
2022/03/08 09:52:01;;;;;;;8.57;5.10;;;7.60;79.10;;;;;;5056782;28;20021;-71
2022/03/08 09:54:27;;;;;;;6.85;4.78;;;7.60;76.20;;;;;;5074636;28;20033;-71
2022/03/08 09:56:52;;;;;;;45.58;5.63;;;7.50;77.90;;;;;;5074717;28;20167;-71
2022/03/08 09:59:19;;;;;;;12.88;5.97;;;7.50;75.50;;;;;;5074145;28;20403;-71
2022/03/08 10:01:46;;;;;;;26.10;5.90;;;7.50;76.80;;;;;;5074532;28;20114;-71
2022/03/08 10:04:19;;;;;;;16.27;5.85;;;7.30;76.10;;;;;;5074445;28;20047;-71
2022/03/08 10:06:50;;;;;;;8.43;5.75;;;7.50;76.70;;;;;;5074795;28;20032;-71
2022/03/08 10:09:19;;;;;;;9.48;6.28;;;7.30;76.60;;;;;;5074214;28;20021;-72
2022/03/08 10:11:49;;;;;;;19.90;6.63;;;7.30;78.00;;;;;;5074183;28;20030;-71
2022/03/08 10:14:36;;;;;;;13.43;6.85;;;7.50;77.10;;;;;;5073579;28;20032;-71
2022/03/08 10:17:02;;;;;;;12.40;6.82;;;7.70;78.50;;;;;;5074289;28;20050;-71
2022/03/08 10:19:28;;;;;;;20.75;7.80;;;8.00;78.40;;;;;;5069451;28;20500;-71
2022/03/08 10:21:57;;;;;;;12.02;6.35;;;7.90;77.50;;;;;;5036245;28;20029;-70
2022/03/08 10:24:26;;;;;;;11.05;7.15;;;7.80;78.10;;;;;;5054014;28;20021;-71
2022/03/08 10:26:57;;;;;;;10.95;6.43;;;7.80;77.80;;;;;;5056976;28;20139;-71
2022/03/08 10:29:31;;;;;;;11.48;6.03;;;8.20;77.60;;;;;;5073929;28;20492;-70
2022/03/08 10:32:19;;;;;;;9.35;5.93;;;8.00;76.90;;;;;;5073868;28;20032;-71
2022/03/08 10:34:51;;;;;;;8.05;5.57;;;8.10;75.20;;;;;;5073831;28;20045;-71
2022/03/08 10:37:20;;;;;;;10.05;6.30;;;7.50;75.10;;;;;;5073714;28;20028;-71
2022/03/08 10:39:57;;;;;;;11.82;5.85;;;7.60;75.00;;;;;;5073973;28;20041;-70
2022/03/08 10:42:35;;;;;;;11.75;6.28;;;8.20;76.10;;;;;;5073411;28;20086;-71
2022/03/08 10:45:14;;;;;;;9.95;6.00;;;8.50;75.20;;;;;;5073660;28;20159;-71
2022/03/08 10:47:45;;;;;;;11.77;6.68;;;8.90;75.40;;;;;;5073697;28;20537;-71
2022/03/08 10:50:17;;;;;;;13.77;7.40;;;8.80;75.80;;;;;;5055574;28;20028;-71
2022/03/08 10:52:45;;;;;;;12.52;7.18;;;8.70;73.70;;;;;;5074072;28;20055;-71
2022/03/08 10:55:20;;;;;;;13.50;5.97;;;8.70;74.10;;;;;;5073240;28;20492;-72
2022/03/08 10:58:00;;;;;;;9.27;5.50;;;8.60;73.90;;;;;;5073211;28;20040;-72
2022/03/08 11:00:50;;;;;;;10.18;6.35;;;8.90;73.80;;;;;;5073373;28;20489;-71
2022/03/08 11:03:22;;;;;;;12.15;5.95;;;8.90;73.00;;;;;;5055425;28;20028;-71
2022/03/08 11:05:53;;;;;;;42.28;6.10;;;8.80;71.70;;;;;;5055264;28;20037;-70
2022/03/08 11:08:20;;;;;;;17.75;5.60;;;8.80;71.60;;;;;;5073105;28;20090;-71
2022/03/08 11:10:46;;;;;;;11.65;5.90;;;9.20;72.60;;;;;;5072632;28;20431;-71
2022/03/08 11:13:15;;;;;;;11.40;6.45;;;9.90;71.00;;;;;;5054945;28;20058;-71
2022/03/08 11:15:43;;;;;;;9.32;6.10;;;9.90;71.40;;;;;;5072762;28;20082;-71
2022/03/08 11:18:11;;;;;;;17.23;5.78;;;10.00;71.50;;;;;;5055069;28;20031;-71
2022/03/08 11:20:39;;;;;;;13.65;6.88;;;10.10;70.60;;;;;;5072675;28;20127;-71
2022/03/08 11:23:06;;;;;;;13.38;6.65;;;10.30;71.10;;;;;;5072633;28;20516;-70
2022/03/08 11:25:35;;;;;;;9.00;5.97;;;10.70;69.80;;;;;;5072490;28;20031;-71
2022/03/08 11:28:03;;;;;;;14.07;6.57;;;10.40;69.20;;;;;;5054923;28;20032;-71
2022/03/08 11:30:51;;;;;;;14.82;6.78;;;10.50;69.70;;;;;;5054814;28;20036;-71
2022/03/08 11:33:33;;;;;;;14.23;6.35;;;10.80;70.50;;;;;;5072388;28;20028;-72
2022/03/08 11:36:04;;;;;;;11.55;5.53;;;11.00;69.40;;;;;;5072691;28;20098;-72
2022/03/08 11:38:30;;;;;;;10.57;5.75;;;11.20;68.30;;;;;;5071870;28;20044;-71
2022/03/08 11:40:57;;;;;;;9.60;6.70;;;11.70;69.40;;;;;;5072480;28;20438;-72
2022/03/08 11:43:44;;;;;;;9.40;5.93;;;12.30;68.10;;;;;;5072608;28;20063;-71
2022/03/08 11:46:19;;;;;;;11.88;7.03;;;12.40;68.10;;;;;;5072420;28;20040;-72
2022/03/08 11:48:52;;;;;;;12.48;6.55;;;12.10;66.20;;;;;;5054770;28;20025;-71
2022/03/08 11:51:18;;;;;;;13.13;6.63;;;11.60;66.70;;;;;;5054325;28;20102;-71
2022/03/08 11:53:47;;;;;;;9.75;6.15;;;11.80;67.90;;;;;;5072143;28;20463;-72
2022/03/08 11:56:20;;;;;;;14.13;6.45;;;12.10;67.70;;;;;;5072565;28;20085;-71
2022/03/08 11:58:49;;;;;;;9.77;6.50;;;12.80;66.90;;;;;;5054636;28;20380;-72
2022/03/08 12:01:27;;;;;;;8.63;6.38;;;11.80;66.40;;;;;;5072405;28;20106;-71
2022/03/08 12:03:57;;;;;;;9.73;5.97;;;11.90;68.40;;;;;;5072204;28;20040;-71
2022/03/08 12:06:32;;;;;;;10.00;6.53;;;12.60;66.90;;;;;;5054575;28;20028;-71
2022/03/08 12:09:10;;;;;;;14.13;6.28;;;12.60;65.80;;;;;;5072210;28;20457;-72
2022/03/08 12:11:39;;;;;;;9.88;5.80;;;12.60;66.10;;;;;;5072176;28;20034;-72
2022/03/08 12:14:13;;;;;;;6.88;6.03;;;13.40;67.20;;;;;;5072175;28;20031;-72
2022/03/08 12:16:44;;;;;;;12.13;5.95;;;13.00;66.70;;;;;;5072393;28;20040;-71
2022/03/08 12:19:12;;;;;;;9.40;6.10;;;13.60;64.90;;;;;;5072267;28;20020;-71
2022/03/08 12:21:41;;;;;;;9.10;5.85;;;13.70;64.90;;;;;;5037512;28;20056;-71
2022/03/08 12:24:11;;;;;;;16.23;6.50;;;14.20;65.20;;;;;;5071715;28;20431;-71
2022/03/08 12:26:48;;;;;;;8.07;5.85;;;13.10;65.40;;;;;;5072071;28;20033;-71
2022/03/08 12:29:14;;;;;;;8.35;6.03;;;13.30;64.80;;;;;;5054663;28;20030;-72
2022/03/08 12:31:58;;;;;;;11.13;6.32;;;13.30;64.70;;;;;;5054423;28;20028;-71
2022/03/08 12:34:37;;;;;;;7.03;5.60;;;13.60;65.00;;;;;;5072120;28;20116;-71
2022/03/08 12:37:27;;;;;;;9.93;5.88;;;14.10;63.50;;;;;;5072177;28;20135;-69
2022/03/08 12:40:11;;;;;;;10.98;5.40;;;14.60;63.90;;;;;;5072512;28;20511;-70
2022/03/08 12:42:39;;;;;;;12.95;5.63;;;14.70;64.60;;;;;;5072145;28;20115;-69
2022/03/08 12:45:17;;;;;;;9.80;5.78;;;14.70;63.60;;;;;;5072307;28;20583;-70